createdAt,value
2017-12-05T00:02:18.586Z,4.85
2017-12-05T00:04:50.148Z,4.80
2017-12-05T00:07:21.538Z,4.80
2017-12-05T00:09:52.832Z,4.88
2017-12-05T00:12:24.338Z,4.87
2017-12-05T00:14:55.938Z,4.90
2017-12-05T00:17:27.995Z,4.88
2017-12-05T00:19:59.328Z,4.88
2017-12-05T00:22:30.648Z,4.84
2017-12-05T00:25:02.317Z,4.81
2017-12-05T00:27:33.644Z,4.90
2017-12-05T00:30:06.215Z,4.85
2017-12-05T00:32:37.888Z,4.87
2017-12-05T00:35:09.215Z,4.90
2017-12-05T00:37:40.761Z,4.84
2017-12-05T00:40:12.708Z,4.90
2017-12-05T00:42:44.432Z,4.95
2017-12-05T00:45:15.836Z,4.87
2017-12-05T00:47:47.239Z,4.86
2017-12-05T00:50:18.920Z,4.88
2017-12-05T00:52:50.340Z,4.90
2017-12-05T00:55:21.636Z,4.81
2017-12-05T00:57:53.253Z,4.88
2017-12-05T01:00:24.700Z,4.87
2017-12-05T01:02:56.057Z,4.82
2017-12-05T01:05:28.976Z,4.82
2017-12-05T01:08:00.315Z,4.71
2017-12-05T01:10:31.735Z,4.72
2017-12-05T01:13:03.529Z,4.74
2017-12-05T01:15:36.041Z,4.71
2017-12-05T01:18:07.408Z,4.73
2017-12-05T01:20:38.744Z,4.70
2017-12-05T01:23:10.351Z,4.75
2017-12-05T01:25:41.693Z,4.73
2017-12-05T01:28:13.995Z,4.78
2017-12-05T01:30:45.368Z,4.75
2017-12-05T01:33:16.981Z,4.78
2017-12-05T01:35:48.328Z,4.82
2017-12-05T01:38:20.388Z,4.81
2017-12-05T01:40:52.372Z,4.91
2017-12-05T01:43:24.172Z,4.87
2017-12-05T01:45:55.472Z,4.91
2017-12-05T01:48:26.911Z,4.92
2017-12-05T01:50:58.292Z,4.96
2017-12-05T01:53:30.067Z,4.96
2017-12-05T01:56:02.702Z,4.99
2017-12-05T01:58:34.151Z,4.98
2017-12-05T02:01:05.968Z,5.06
2017-12-05T02:03:37.828Z,5.07
2017-12-05T02:06:10.009Z,5.06
2017-12-05T02:08:41.514Z,5.11
2017-12-05T02:11:13.112Z,5.11
2017-12-05T02:13:44.821Z,5.15
2017-12-05T02:16:16.213Z,5.14
2017-12-05T02:18:47.663Z,5.17
2017-12-05T02:21:19.223Z,5.15
2017-12-05T02:23:50.812Z,5.20
2017-12-05T02:26:22.119Z,5.17
2017-12-05T02:28:53.470Z,5.22
2017-12-05T02:31:25.006Z,5.27
2017-12-05T02:33:57.024Z,5.26
2017-12-05T02:36:28.351Z,5.28
2017-12-05T02:38:59.719Z,5.28
2017-12-05T02:41:31.404Z,5.31
2017-12-05T02:44:04.066Z,5.37
2017-12-05T02:46:36.438Z,5.37
2017-12-05T02:49:08.023Z,5.34
2017-12-05T02:51:39.412Z,5.35
2017-12-05T02:54:11.114Z,5.37
2017-12-05T02:56:42.697Z,5.34
2017-12-05T02:59:14.286Z,5.35
2017-12-05T03:01:45.633Z,5.34
2017-12-05T03:04:18.441Z,5.37
2017-12-05T03:06:51.198Z,5.40
2017-12-05T03:09:22.545Z,5.43
2017-12-05T03:11:54.364Z,5.43
2017-12-05T03:14:25.808Z,5.44
2017-12-05T03:16:57.176Z,5.42
2017-12-05T03:19:28.545Z,5.43
2017-12-05T03:21:59.860Z,5.47
2017-12-05T03:24:31.300Z,5.43
2017-12-05T03:27:03.087Z,5.43
2017-12-05T03:29:34.522Z,5.45
2017-12-05T03:32:07.258Z,5.43
2017-12-05T03:34:39.752Z,5.42
2017-12-05T03:37:11.047Z,5.43
2017-12-05T03:39:42.382Z,5.39
2017-12-05T03:42:14.315Z,5.35
2017-12-05T03:44:45.659Z,5.43
2017-12-05T03:47:16.963Z,5.42
2017-12-05T03:49:48.677Z,5.37
2017-12-05T03:52:20.117Z,5.42
2017-12-05T03:54:51.595Z,5.35
2017-12-05T03:57:23.265Z,5.34
2017-12-05T03:59:54.610Z,5.35
2017-12-05T04:02:26.060Z,5.31
2017-12-05T04:04:57.847Z,5.32
2017-12-05T04:07:29.762Z,5.36
2017-12-05T04:10:02.103Z,5.33
2017-12-05T04:12:33.423Z,5.36
2017-12-05T04:15:05.783Z,5.35
2017-12-05T04:17:37.140Z,5.40
2017-12-05T04:20:08.626Z,5.48
2017-12-05T04:22:40.186Z,5.47
2017-12-05T04:25:11.511Z,5.47
2017-12-05T04:27:43.627Z,5.49
2017-12-05T04:30:15.557Z,5.52
2017-12-05T04:32:46.878Z,5.54
2017-12-05T04:35:18.240Z,5.53
2017-12-05T04:37:49.843Z,5.53
2017-12-05T04:40:21.429Z,5.57
2017-12-05T04:42:52.810Z,5.59
2017-12-05T04:45:24.539Z,5.59
2017-12-05T04:47:55.890Z,5.60
2017-12-05T04:50:27.514Z,5.63
2017-12-05T04:52:59.171Z,5.61
2017-12-05T04:55:30.592Z,5.63
2017-12-05T04:58:04.111Z,5.64
2017-12-05T05:00:36.522Z,5.64
2017-12-05T05:03:07.835Z,5.59
2017-12-05T05:05:40.380Z,5.60
2017-12-05T05:08:12.155Z,5.53
2017-12-05T05:10:44.289Z,5.56
2017-12-05T05:13:15.773Z,5.52
2017-12-05T05:15:47.364Z,5.47
2017-12-05T05:18:18.706Z,5.45
2017-12-05T05:20:50.007Z,5.43
2017-12-05T05:23:21.840Z,5.56
2017-12-05T05:25:53.242Z,5.59
2017-12-05T05:28:24.792Z,5.56
2017-12-05T05:30:56.303Z,5.54
2017-12-05T05:33:27.911Z,5.57
2017-12-05T05:35:59.398Z,5.54
2017-12-05T05:38:30.985Z,5.62
2017-12-05T05:41:02.774Z,5.54
2017-12-05T05:43:34.215Z,5.48
2017-12-05T05:46:07.058Z,5.51
2017-12-05T05:48:38.367Z,5.48
2017-12-05T05:51:09.671Z,5.50
2017-12-05T05:53:41.244Z,5.53
2017-12-05T05:56:13.022Z,5.54
2017-12-05T05:58:44.300Z,5.54
2017-12-05T06:01:15.638Z,5.62
2017-12-05T06:03:46.939Z,5.63
2017-12-05T06:06:18.324Z,5.61
2017-12-05T06:08:50.844Z,5.55
2017-12-05T06:11:22.143Z,5.55
2017-12-05T06:13:53.411Z,5.59
2017-12-05T06:16:25.161Z,5.58
2017-12-05T06:18:56.458Z,5.59
2017-12-05T06:21:27.877Z,5.64
2017-12-05T06:23:59.163Z,5.62
2017-12-05T06:26:32.418Z,5.67
2017-12-05T06:29:04.008Z,5.63
2017-12-05T06:31:35.633Z,5.68
2017-12-05T06:34:07.185Z,5.69
2017-12-05T06:36:38.514Z,5.68
2017-12-05T06:39:10.171Z,5.76
2017-12-05T06:41:41.491Z,5.72
2017-12-05T06:44:13.440Z,5.74
2017-12-05T06:46:45.037Z,5.79
2017-12-05T06:49:16.342Z,5.81
2017-12-05T06:51:47.836Z,5.82
2017-12-05T06:54:19.522Z,5.80
2017-12-05T06:56:51.037Z,5.78
2017-12-05T06:59:22.407Z,5.81
2017-12-05T07:01:53.905Z,5.82
2017-12-05T07:04:25.463Z,5.87
2017-12-05T07:06:57.441Z,5.84
2017-12-05T07:09:31.312Z,5.86
2017-12-05T07:12:03.940Z,5.88
2017-12-05T07:14:37.207Z,5.90
2017-12-05T07:17:08.815Z,5.96
2017-12-05T07:19:40.168Z,6.03
2017-12-05T07:22:12.681Z,5.93
2017-12-05T07:24:44.038Z,5.96
2017-12-05T07:27:15.429Z,5.94
2017-12-05T07:29:47.112Z,5.92
2017-12-05T07:32:19.287Z,5.90
2017-12-05T07:34:50.954Z,5.97
2017-12-05T07:37:22.655Z,5.92
2017-12-05T07:39:54.028Z,5.90
2017-12-05T07:42:26.183Z,5.97
2017-12-05T07:44:58.358Z,5.96
2017-12-05T07:47:29.972Z,6.00
2017-12-05T07:50:02.798Z,5.97
2017-12-05T07:52:36.704Z,6.05
2017-12-05T07:55:08.057Z,6.08
2017-12-05T07:57:40.609Z,6.03
2017-12-05T08:00:12.111Z,6.03
2017-12-05T08:02:43.735Z,6.06
2017-12-05T08:05:15.852Z,6.12
2017-12-05T08:07:47.329Z,6.25
2017-12-05T08:10:19.017Z,6.13
2017-12-05T08:12:51.289Z,6.22
2017-12-05T08:15:22.652Z,6.24
2017-12-05T08:17:54.661Z,6.20
2017-12-05T08:20:26.256Z,6.24
2017-12-05T08:22:57.655Z,6.16
2017-12-05T08:25:31.171Z,6.21
2017-12-05T08:28:04.361Z,6.22
2017-12-05T08:30:37.610Z,6.27
2017-12-05T08:33:09.738Z,6.25
2017-12-05T08:35:41.119Z,6.33
2017-12-05T08:38:13.197Z,6.38
2017-12-05T08:40:44.629Z,6.41
2017-12-05T08:43:16.099Z,6.46
2017-12-05T08:45:47.918Z,6.47
2017-12-05T08:48:19.446Z,6.50
2017-12-05T08:50:50.819Z,6.56
2017-12-05T08:53:22.454Z,6.59
2017-12-05T08:55:53.814Z,6.62
2017-12-05T08:58:25.284Z,6.79
2017-12-05T09:00:56.653Z,6.97
2017-12-05T09:03:28.815Z,7.09
2017-12-05T09:06:00.163Z,7.26
2017-12-05T09:08:31.528Z,7.41
2017-12-05T09:11:03.318Z,7.41
2017-12-05T09:13:34.735Z,7.42
2017-12-05T09:16:12.061Z,7.42
2017-12-05T09:18:43.420Z,7.39
2017-12-05T09:21:14.761Z,7.24
2017-12-05T09:23:46.523Z,7.14
2017-12-05T09:26:17.970Z,6.93
2017-12-05T09:28:49.663Z,7.13
2017-12-05T09:31:21.091Z,7.55
2017-12-05T09:33:52.787Z,8.05
2017-12-05T09:36:24.659Z,8.51
2017-12-05T09:38:56.051Z,8.98
2017-12-05T09:41:27.786Z,8.98
2017-12-05T09:43:59.501Z,9.67
2017-12-05T09:46:31.082Z,11.43
2017-12-05T09:51:57.876Z,12.18
2017-12-05T09:54:31.002Z,12.07
2017-12-05T09:57:03.086Z,11.32
2017-12-05T09:59:34.459Z,11.09
2017-12-05T10:02:06.203Z,11.47
2017-12-05T10:04:37.849Z,12.65
2017-12-05T10:07:09.265Z,13.80
2017-12-05T10:09:40.731Z,15.36
2017-12-05T10:12:13.160Z,15.87
2017-12-05T10:14:44.739Z,16.70
2017-12-05T10:17:16.375Z,16.87
2017-12-05T10:19:47.787Z,17.69
2017-12-05T10:22:19.197Z,18.09
2017-12-05T10:24:50.864Z,19.04
2017-12-05T10:27:22.250Z,19.29
2017-12-05T10:29:53.628Z,19.26
2017-12-05T10:32:25.383Z,19.46
2017-12-05T10:34:56.765Z,18.17
2017-12-05T10:37:28.903Z,18.76
2017-12-05T10:40:00.311Z,20.03
2017-12-05T10:42:31.709Z,20.69
2017-12-05T10:45:03.609Z,20.55
2017-12-05T10:47:35.563Z,19.76
2017-12-05T10:50:07.623Z,20.18
2017-12-05T10:52:40.768Z,21.08
2017-12-05T10:55:12.145Z,21.47
2017-12-05T10:57:45.215Z,20.44
2017-12-05T11:00:17.069Z,19.45
2017-12-05T11:02:48.448Z,19.33
2017-12-05T11:05:20.258Z,18.63
2017-12-05T11:07:51.667Z,16.39
2017-12-05T11:10:23.053Z,15.34
2017-12-05T11:12:54.980Z,14.39
2017-12-05T11:15:28.724Z,13.96
2017-12-05T11:18:00.518Z,12.77
2017-12-05T11:20:33.743Z,12.31
2017-12-05T11:23:05.176Z,12.31
2017-12-05T11:25:38.526Z,12.06
2017-12-05T11:28:10.268Z,12.06
2017-12-05T11:30:43.598Z,12.14
2017-12-05T11:33:15.004Z,12.38
2017-12-05T11:35:47.982Z,12.86
2017-12-05T11:38:19.748Z,13.08
2017-12-05T11:40:52.790Z,12.74
2017-12-05T11:43:24.160Z,12.91
2017-12-05T11:45:56.414Z,13.30
2017-12-05T11:48:27.997Z,13.45
2017-12-05T11:50:59.780Z,13.30
2017-12-05T11:53:32.735Z,12.69
2017-12-05T11:56:05.736Z,12.26
2017-12-05T11:58:37.401Z,11.83
2017-12-05T12:01:08.808Z,11.38
2017-12-05T12:03:40.205Z,10.93
2017-12-05T12:06:12.047Z,10.77
2017-12-05T12:08:45.081Z,10.60
2017-12-05T12:11:16.496Z,10.29
2017-12-05T12:13:49.926Z,10.52
2017-12-05T12:16:22.146Z,10.56
2017-12-05T12:18:53.769Z,10.41
2017-12-05T12:21:25.295Z,10.28
2017-12-05T12:23:56.759Z,9.99
2017-12-05T12:26:30.416Z,10.00
2017-12-05T12:29:02.181Z,9.93
2017-12-05T12:31:35.374Z,9.74
2017-12-05T12:34:06.933Z,9.69
2017-12-05T12:36:39.588Z,9.73
2017-12-05T12:39:11.256Z,9.64
2017-12-05T12:41:44.348Z,9.60
2017-12-05T12:44:16.088Z,9.47
2017-12-05T12:46:47.506Z,9.57
2017-12-05T12:49:18.958Z,9.51
2017-12-05T12:51:52.175Z,9.39
2017-12-05T12:54:23.601Z,9.33
2017-12-05T12:56:55.492Z,9.47
2017-12-05T12:59:27.852Z,9.58
2017-12-05T13:01:59.161Z,9.71
2017-12-05T13:04:32.450Z,9.54
2017-12-05T13:07:04.241Z,9.56
2017-12-05T13:09:35.883Z,9.68
2017-12-05T13:12:09.963Z,9.87
2017-12-05T13:14:42.157Z,9.74
2017-12-05T13:17:13.935Z,9.64
2017-12-05T13:19:45.259Z,9.56
2017-12-05T13:22:16.999Z,9.44
2017-12-05T13:24:48.473Z,9.45
2017-12-05T13:27:19.928Z,9.50
2017-12-05T13:29:51.555Z,9.48
2017-12-05T13:32:22.916Z,9.43
2017-12-05T13:34:54.266Z,9.41
2017-12-05T13:37:26.087Z,9.38
2017-12-05T13:39:57.481Z,9.33
2017-12-05T13:42:29.108Z,9.00
2017-12-05T13:45:00.490Z,9.03
2017-12-05T13:47:31.865Z,8.89
2017-12-05T13:50:04.476Z,8.78
2017-12-05T13:52:36.139Z,8.72
2017-12-05T13:55:07.734Z,8.75
2017-12-05T13:57:39.556Z,8.74
2017-12-05T14:00:12.102Z,8.77
2017-12-05T14:02:43.945Z,8.75
2017-12-05T14:05:15.335Z,8.55
2017-12-05T14:07:46.707Z,8.61
2017-12-05T14:10:18.641Z,8.59
2017-12-05T14:12:51.173Z,8.53
2017-12-05T14:15:24.230Z,8.47
2017-12-05T14:17:55.945Z,8.49
2017-12-05T14:20:29.363Z,8.43
2017-12-05T14:23:02.942Z,8.49
2017-12-05T14:25:36.112Z,8.47
2017-12-05T14:28:10.367Z,8.35
2017-12-05T14:30:43.104Z,8.33
2017-12-05T14:33:14.448Z,8.33
2017-12-05T14:35:46.303Z,8.32
2017-12-05T14:38:17.990Z,8.32
2017-12-05T14:40:49.511Z,8.29
2017-12-05T14:43:21.015Z,8.30
2017-12-05T14:45:52.787Z,8.28
2017-12-05T14:48:24.191Z,8.25
2017-12-05T14:50:57.255Z,8.27
2017-12-05T14:53:28.774Z,8.25
2017-12-05T14:56:00.636Z,8.25
2017-12-05T14:58:32.840Z,8.21
2017-12-05T15:01:05.015Z,8.13
2017-12-05T15:03:36.374Z,8.12
2017-12-05T15:06:14.001Z,8.04
2017-12-05T15:08:50.077Z,8.03
2017-12-05T15:11:21.990Z,8.04
2017-12-05T15:13:53.689Z,8.02
2017-12-05T15:16:25.547Z,8.01
2017-12-05T15:18:57.266Z,7.95
2017-12-05T15:21:28.936Z,8.00
2017-12-05T15:24:00.366Z,7.99
2017-12-05T15:26:32.071Z,8.00
2017-12-05T15:29:04.046Z,7.97
2017-12-05T15:31:35.566Z,7.95
2017-12-05T15:34:07.810Z,7.93
2017-12-05T15:36:39.291Z,7.96
2017-12-05T15:39:11.162Z,7.88
2017-12-05T15:41:42.551Z,7.89
2017-12-05T15:44:17.579Z,7.87
2017-12-05T15:46:49.380Z,7.89
2017-12-05T15:49:20.789Z,7.82
2017-12-05T15:51:54.073Z,7.83
2017-12-05T15:54:25.495Z,7.83
2017-12-05T15:56:56.993Z,7.86
2017-12-05T15:59:29.387Z,7.94
2017-12-05T16:02:00.952Z,7.97
2017-12-05T16:04:32.419Z,7.86
2017-12-05T16:07:05.624Z,7.79
2017-12-05T16:09:37.033Z,7.71
2017-12-05T16:12:08.904Z,7.76
2017-12-05T16:14:40.270Z,7.76
2017-12-05T16:17:11.995Z,7.74
2017-12-05T16:19:43.635Z,7.61
2017-12-05T16:22:16.092Z,7.59
2017-12-05T16:24:47.489Z,7.62
2017-12-05T16:27:19.190Z,7.67
2017-12-05T16:29:52.041Z,7.72
2017-12-05T16:32:23.615Z,7.80
2017-12-05T16:34:55.052Z,7.79
2017-12-05T16:37:26.721Z,7.79
2017-12-05T16:39:59.421Z,7.79
2017-12-05T16:42:30.986Z,7.81
2017-12-05T16:45:02.649Z,7.80
2017-12-05T16:47:34.460Z,7.82
2017-12-05T16:50:07.424Z,7.87
2017-12-05T16:52:39.073Z,7.83
2017-12-05T16:55:14.020Z,7.78
2017-12-05T16:57:49.281Z,7.75
2017-12-05T17:00:22.664Z,7.83
2017-12-05T17:02:54.307Z,7.73
2017-12-05T17:05:28.704Z,7.75
2017-12-05T17:08:00.672Z,7.66
2017-12-05T17:10:32.343Z,7.67
2017-12-05T17:13:04.635Z,7.73
2017-12-05T17:15:38.502Z,7.71
2017-12-05T17:18:10.297Z,7.68
2017-12-05T17:20:42.267Z,7.62
2017-12-05T17:23:13.672Z,7.68
2017-12-05T17:25:45.100Z,7.67
2017-12-05T17:28:18.112Z,7.66
2017-12-05T17:30:51.320Z,7.70
2017-12-05T17:33:23.043Z,7.64
2017-12-05T17:35:54.728Z,7.59
2017-12-05T17:38:27.230Z,7.66
2017-12-05T17:41:00.473Z,7.66
2017-12-05T17:43:33.806Z,7.57
2017-12-05T17:46:06.463Z,7.52
2017-12-05T17:48:38.438Z,7.54
2017-12-05T17:51:09.819Z,7.60
2017-12-05T17:53:41.483Z,7.53
2017-12-05T17:56:13.610Z,7.59
2017-12-05T17:58:48.471Z,7.55
2017-12-05T18:01:19.985Z,7.51
2017-12-05T18:03:54.103Z,7.59
2017-12-05T18:06:26.081Z,7.61
2017-12-05T18:08:58.368Z,7.55
2017-12-05T18:11:32.707Z,7.45
2017-12-05T18:14:06.068Z,7.46
2017-12-05T18:16:37.438Z,7.47
2017-12-05T18:19:09.199Z,7.53
2017-12-05T18:24:35.516Z,7.41
2017-12-05T18:27:06.952Z,7.46
2017-12-05T18:29:38.690Z,7.44
2017-12-05T18:32:10.989Z,7.48
2017-12-05T18:34:42.742Z,7.45
2017-12-05T18:37:14.814Z,7.46
2017-12-05T18:39:46.721Z,7.41
2017-12-05T18:42:19.133Z,7.44
2017-12-05T18:44:52.911Z,7.45
2017-12-05T18:47:24.787Z,7.48
2017-12-05T18:49:56.833Z,7.47
2017-12-05T18:52:28.648Z,7.50
2017-12-05T18:55:02.088Z,7.50
2017-12-05T18:57:35.320Z,7.52
2017-12-05T19:00:11.520Z,7.49
2017-12-05T19:02:44.617Z,7.49
2017-12-05T19:05:16.658Z,7.45
2017-12-05T19:10:46.044Z,7.46
2017-12-05T19:13:17.742Z,7.45
2017-12-05T19:15:50.889Z,7.40
2017-12-05T19:18:23.144Z,7.43
2017-12-05T19:20:54.885Z,7.45
2017-12-05T19:23:26.996Z,7.43
2017-12-05T19:25:59.858Z,7.40
2017-12-05T19:28:32.945Z,7.42
2017-12-05T19:31:04.950Z,7.36
2017-12-05T19:33:38.422Z,7.31
2017-12-05T19:36:10.511Z,7.26
2017-12-05T19:38:42.467Z,7.31
2017-12-05T19:41:22.549Z,7.36
2017-12-05T19:43:54.105Z,7.34
2017-12-05T19:46:25.972Z,7.34
2017-12-05T19:48:57.578Z,7.33
2017-12-05T19:51:29.888Z,7.36
2017-12-05T19:54:08.547Z,7.34
2017-12-05T19:56:51.142Z,7.34
2017-12-05T19:59:23.247Z,7.30
2017-12-05T20:01:55.090Z,7.19
2017-12-05T20:04:26.887Z,7.25
2017-12-05T20:06:58.360Z,7.26
2017-12-05T20:09:30.435Z,7.30
2017-12-05T20:12:04.230Z,7.27
2017-12-05T20:14:35.962Z,7.29
2017-12-05T20:17:07.615Z,7.31
2017-12-05T20:19:39.188Z,7.27
2017-12-05T20:22:13.091Z,7.24
2017-12-05T20:24:44.710Z,7.25
2017-12-05T20:27:16.541Z,7.23
2017-12-05T20:29:49.319Z,7.22
2017-12-05T20:32:21.283Z,7.26
2017-12-05T20:34:53.288Z,7.29
2017-12-05T20:37:24.692Z,7.31
2017-12-05T20:39:57.237Z,7.27
2017-12-05T20:42:30.003Z,7.32
2017-12-05T20:45:02.056Z,7.28
2017-12-05T20:47:34.163Z,7.23
2017-12-05T20:50:08.298Z,7.28
2017-12-05T20:52:43.907Z,7.22
2017-12-05T20:55:15.696Z,7.23
2017-12-05T20:57:49.572Z,7.24
2017-12-05T21:00:21.139Z,7.25
2017-12-05T21:02:52.706Z,7.24
2017-12-05T21:05:24.459Z,7.20
2017-12-05T21:07:55.845Z,7.24
2017-12-05T21:10:27.865Z,7.18
2017-12-05T21:12:59.424Z,7.18
2017-12-05T21:15:30.747Z,7.20
2017-12-05T21:18:04.486Z,7.14
2017-12-05T21:23:25.122Z,7.11
2017-12-05T21:26:00.090Z,7.17
2017-12-05T21:28:33.084Z,7.12
2017-12-05T21:31:05.248Z,7.14
2017-12-05T21:33:56.891Z,7.19
2017-12-05T21:36:30.356Z,7.21
2017-12-05T21:39:02.299Z,7.14
2017-12-05T21:41:36.782Z,7.20
2017-12-05T21:44:11.512Z,7.19
2017-12-05T21:46:43.144Z,7.15
2017-12-05T21:49:14.821Z,7.16
2017-12-05T21:51:47.658Z,7.22
2017-12-05T21:54:19.680Z,7.22
2017-12-05T21:56:51.962Z,7.19
2017-12-05T21:59:54.011Z,7.22
2017-12-05T22:02:26.136Z,7.19
2017-12-05T22:04:57.767Z,7.24
2017-12-05T22:07:29.339Z,7.25
2017-12-05T22:10:01.412Z,7.09
2017-12-05T22:12:32.839Z,7.14
2017-12-05T22:15:05.191Z,7.15
2017-12-05T22:17:36.869Z,7.18
2017-12-05T22:20:08.677Z,7.19
2017-12-05T22:22:40.579Z,7.09
2017-12-05T22:25:12.758Z,7.04
2017-12-05T22:27:44.296Z,7.16
2017-12-05T22:30:16.073Z,7.18
2017-12-05T22:32:47.849Z,7.12
2017-12-05T22:35:22.923Z,7.06
2017-12-05T22:37:54.282Z,7.08
2017-12-05T22:40:25.978Z,7.10
2017-12-05T22:42:57.470Z,7.15
2017-12-05T22:45:29.406Z,7.11
2017-12-05T22:48:00.853Z,7.18
2017-12-05T22:50:32.325Z,7.19
2017-12-05T22:53:04.343Z,7.21
2017-12-05T22:55:36.071Z,7.22
2017-12-05T22:58:09.324Z,7.22
2017-12-05T23:00:40.750Z,7.21
2017-12-05T23:03:12.072Z,7.25
2017-12-05T23:05:44.666Z,7.21
2017-12-05T23:08:16.877Z,7.20
2017-12-05T23:10:48.237Z,7.23
2017-12-05T23:13:19.567Z,7.18
2017-12-05T23:15:51.222Z,7.21
2017-12-05T23:18:22.601Z,7.33
2017-12-05T23:20:53.928Z,7.32
2017-12-05T23:23:25.518Z,7.31
2017-12-05T23:25:56.829Z,7.28
2017-12-05T23:28:29.341Z,7.18
2017-12-05T23:31:01.078Z,7.18
2017-12-05T23:33:32.379Z,7.20
2017-12-05T23:36:05.226Z,7.26
2017-12-05T23:38:36.962Z,7.30
2017-12-05T23:41:08.583Z,7.35
2017-12-05T23:43:39.889Z,7.35
2017-12-05T23:46:14.257Z,7.35
2017-12-05T23:48:45.612Z,7.37
2017-12-05T23:51:17.202Z,7.38
2017-12-05T23:53:48.513Z,7.36
2017-12-05T23:56:21.573Z,7.34
2017-12-05T23:58:53.189Z,7.38
